Terminal Aerodrome Forecast
Issued by NWS

Home | Current Version | Previous Version | Text Only | Print | Product List | Glossary On
Versions: 1 2 3 4 5 6 7 8 9 10 11 12 13 14
000
FTUS42 TJSJ 252300
TAFJSJ
TAF
TJSJ 252322Z 2600/2624 VRB05KT P6SM FEW035 SCT150
     FM261500 08011KT P6SM SCT025 SCT050
     FM262200 11006KT P6SM FEW030=

USA.gov is the U.S. government's official web portal to all federal, state and local government web resources and services.